Time;durP1;ratioP1;P1;durP2;ratioP2;P2;SDS_P1;SDS_P2;PMS_P1;PMS_P2;Temp;Humidity;BMP_temperature;BMP_pressure;BME280_temperature;BME280_humidity;BME280_pressure;Samples;Min_cycle;Max_cycle;Signal;HPM_P1;HPM_P2
2021/04/22 00:00:11;;;;;;;24.63;6.00;;;;;;;-0.68;83.49;100677.59;4960071;28;20030;-67
2021/04/22 00:02:37;;;;;;;28.90;6.65;;;;;;;-0.56;82.25;100681.69;4984360;28;20034;-68
2021/04/22 00:05:33;;;;;;;23.48;6.53;;;;;;;-0.61;83.02;100686.59;4989414;28;20049;-69
2021/04/22 00:08:00;;;;;;;24.08;4.95;;;;;;;-0.74;82.86;100685.13;4983431;28;20070;-69
2021/04/22 00:10:35;;;;;;;31.00;5.90;;;;;;;-0.77;83.42;100684.59;4964064;28;20022;-69
2021/04/22 00:13:01;;;;;;;23.30;5.18;;;;;;;-0.78;82.75;100677.63;4983155;28;20042;-69
2021/04/22 00:15:26;;;;;;;30.35;6.65;;;;;;;-0.89;83.14;100683.91;4983684;28;20027;-68
2021/04/22 00:17:54;;;;;;;32.00;6.32;;;;;;;-0.91;84.01;100691.16;4981704;28;20043;-68
2021/04/22 00:20:21;;;;;;;23.30;6.68;;;;;;;-0.97;83.13;100683.81;4974137;28;20366;-70
2021/04/22 00:22:47;;;;;;;30.80;5.53;;;;;;;-1.06;83.09;100685.50;4970620;28;20089;-68
2021/04/22 00:25:13;;;;;;;36.60;5.68;;;;;;;-0.95;83.10;100695.91;4972533;28;20121;-68
2021/04/22 00:27:39;;;;;;;26.10;7.20;;;;;;;-0.94;84.02;100686.97;4990814;28;20103;-67
2021/04/22 00:30:07;;;;;;;37.85;7.10;;;;;;;-0.85;82.98;100690.59;4980250;28;20113;-67
2021/04/22 00:32:33;;;;;;;30.45;5.88;;;;;;;-0.91;83.74;100697.28;4973417;28;20035;-69
2021/04/22 00:34:59;;;;;;;22.08;5.05;;;;;;;-1.00;82.69;100692.03;4989523;28;20054;-69
2021/04/22 00:37:25;;;;;;;29.20;5.72;;;;;;;-1.13;83.09;100702.91;4981000;28;20130;-68
2021/04/22 00:39:50;;;;;;;18.83;4.82;;;;;;;-1.23;83.46;100709.03;4981687;28;20437;-68
2021/04/22 00:42:16;;;;;;;27.10;5.97;;;;;;;-1.12;84.53;100694.00;4979935;28;20072;-69
2021/04/22 00:44:46;;;;;;;25.70;5.70;;;;;;;-1.09;83.29;100704.28;4990454;28;20524;-69
2021/04/22 00:47:14;;;;;;;26.50;5.05;;;;;;;-1.28;83.93;100702.53;4976848;28;20030;-69
2021/04/22 00:49:40;;;;;;;26.00;6.53;;;;;;;-1.39;84.25;100704.34;4967764;28;20046;-69
2021/04/22 00:52:06;;;;;;;25.33;6.07;;;;;;;-1.47;84.50;100706.84;4969424;28;20027;-69
2021/04/22 00:54:34;;;;;;;23.73;6.35;;;;;;;-1.54;85.15;100705.75;4969740;28;20049;-68
2021/04/22 00:57:00;;;;;;;28.65;7.68;;;;;;;-1.59;84.71;100705.31;4969431;28;20035;-71
2021/04/22 00:59:25;;;;;;;39.78;6.82;;;;;;;-1.62;85.44;100703.78;4979592;28;20038;-70
2021/04/22 01:01:51;;;;;;;31.80;6.07;;;;;;;-1.60;85.05;100696.56;4977172;28;20038;-69
2021/04/22 01:04:17;;;;;;;34.20;8.30;;;;;;;-1.28;85.07;100697.22;4970138;28;20037;-71
2021/04/22 01:06:44;;;;;;;28.02;6.32;;;;;;;-1.29;83.54;100701.66;4972589;28;20480;-70
2021/04/22 01:09:14;;;;;;;28.92;6.15;;;;;;;-1.13;84.33;100700.25;4977445;28;20043;-69
2021/04/22 01:11:41;;;;;;;23.35;5.70;;;;;;;-1.19;83.26;100702.50;4978122;28;20718;-70
2021/04/22 01:14:07;;;;;;;35.72;6.13;;;;;;;-1.16;83.80;100697.91;4984178;28;20042;-69
2021/04/22 01:16:33;;;;;;;24.90;5.15;;;;;;;-1.37;83.69;100702.41;4983160;28;20559;-70
2021/04/22 01:18:59;;;;;;;18.83;4.90;;;;;;;-1.53;84.01;100702.94;4972595;28;20070;-69
2021/04/22 01:21:26;;;;;;;18.20;4.13;;;;;;;-1.65;84.49;100707.56;4979235;28;20142;-70
2021/04/22 01:23:52;;;;;;;20.98;5.25;;;;;;;-1.75;85.00;100712.00;4988327;28;20030;-69
2021/04/22 01:26:21;;;;;;;20.10;5.13;;;;;;;-1.78;85.22;100709.59;4975308;28;20046;-69
2021/04/22 01:28:47;;;;;;;30.27;5.70;;;;;;;-1.75;85.29;100714.63;4984479;28;20122;-70
2021/04/22 01:31:13;;;;;;;28.00;5.70;;;;;;;-1.84;85.07;100718.06;4979753;28;20493;-70
2021/04/22 01:33:39;;;;;;;31.05;7.35;;;;;;;-1.67;85.65;100717.44;4991334;28;20030;-70
2021/04/22 01:36:05;;;;;;;50.97;9.52;;;;;;;-1.49;85.29;100719.38;4982895;28;20408;-70
2021/04/22 01:38:31;;;;;;;32.38;6.20;;;;;;;-1.60;84.48;100720.31;4982728;28;20092;-69
2021/04/22 01:40:57;;;;;;;28.52;5.97;;;;;;;-1.73;84.23;100719.75;4978943;28;20031;-69
2021/04/22 01:43:23;;;;;;;36.90;6.95;;;;;;;-1.86;85.07;100720.88;4966971;28;20062;-69
2021/04/22 01:45:48;;;;;;;36.40;7.38;;;;;;;-1.88;85.52;100733.38;4981682;28;20035;-70
2021/04/22 01:48:14;;;;;;;33.45;7.10;;;;;;;-1.94;85.61;100726.81;4980128;28;20073;-69
2021/04/22 01:50:40;;;;;;;36.15;7.30;;;;;;;-1.96;85.78;100730.56;4982851;28;20086;-70
2021/04/22 01:53:07;;;;;;;32.40;7.35;;;;;;;-2.01;85.78;100724.88;4977986;28;20034;-69
2021/04/22 01:55:39;;;;;;;42.55;7.90;;;;;;;-2.01;86.01;100724.88;4972030;28;20054;-70
2021/04/22 01:58:06;;;;;;;27.13;6.85;;;;;;;-1.97;85.93;100728.91;4980193;28;20105;-70
2021/04/22 02:00:41;;;;;;;20.58;4.50;;;;;;;-1.89;86.04;100729.06;4971827;28;20504;-71
2021/04/22 02:03:07;;;;;;;25.25;4.35;;;;;;;-1.83;86.31;100723.22;4972894;28;20030;-68
2021/04/22 02:05:35;;;;;;;32.42;4.82;;;;;;;-1.75;86.04;100722.56;4979294;28;20027;-68
2021/04/22 02:08:01;;;;;;;18.55;4.32;;;;;;;-1.79;85.19;100714.06;4972063;28;20081;-68
2021/04/22 02:10:27;;;;;;;21.77;3.85;;;;;;;-1.89;85.60;100720.28;4986931;28;20038;-70
2021/04/22 02:12:53;;;;;;;17.83;3.80;;;;;;;-1.94;85.99;100721.53;4980643;28;20467;-68
2021/04/22 02:15:22;;;;;;;26.00;5.15;;;;;;;-1.89;86.61;100715.84;4980259;28;20125;-69
2021/04/22 02:17:48;;;;;;;33.95;5.65;;;;;;;-1.68;85.96;100721.03;4969753;28;20043;-69
2021/04/22 02:20:15;;;;;;;28.77;4.85;;;;;;;-1.71;84.49;100721.31;4973419;28;20054;-69
2021/04/22 02:22:41;;;;;;;23.67;4.78;;;;;;;-1.83;84.52;100720.59;4981435;28;20026;-69
2021/04/22 02:25:10;;;;;;;21.77;4.28;;;;;;;-2.00;84.63;100723.91;4982383;28;20043;-68
2021/04/22 02:27:37;;;;;;;23.17;4.60;;;;;;;-1.95;84.48;100714.59;4979231;28;20068;-68
2021/04/22 02:30:09;;;;;;;23.33;4.60;;;;;;;-2.08;85.22;100714.00;4987773;28;20119;-69
2021/04/22 02:32:36;;;;;;;25.40;5.22;;;;;;;-1.97;84.99;100710.44;4979559;28;20027;-69
2021/04/22 02:35:03;;;;;;;19.17;4.20;;;;;;;-2.16;84.71;100711.22;4977781;28;20043;-69
2021/04/22 02:37:29;;;;;;;30.27;4.68;;;;;;;-2.17;85.56;100715.66;4976024;28;20452;-69
2021/04/22 02:39:54;;;;;;;28.98;4.95;;;;;;;-2.30;84.89;100717.72;4984965;28;20532;-69
2021/04/22 02:42:20;;;;;;;23.42;4.97;;;;;;;-2.39;85.01;100716.69;4987866;28;20540;-68
2021/04/22 02:44:45;;;;;;;20.95;4.80;;;;;;;-2.45;85.63;100717.25;4988282;28;20125;-68
2021/04/22 02:47:11;;;;;;;21.95;5.47;;;;;;;-2.51;86.33;100723.91;4973084;28;20062;-69
2021/04/22 02:49:37;;;;;;;21.63;5.45;;;;;;;-2.52;86.09;100724.88;4977152;28;20503;-68
2021/04/22 02:52:03;;;;;;;24.40;6.45;;;;;;;-2.54;86.48;100727.63;4978331;28;20030;-69
2021/04/22 02:54:29;;;;;;;31.85;7.28;;;;;;;-2.37;87.04;100725.31;4974349;28;20037;-69
2021/04/22 02:56:55;;;;;;;30.25;7.15;;;;;;;-2.12;86.64;100724.03;4981510;28;20034;-69
2021/04/22 02:59:20;;;;;;;22.63;5.47;;;;;;;-2.09;85.58;100730.81;4966741;28;20481;-69
2021/04/22 03:01:46;;;;;;;26.38;6.22;;;;;;;-2.17;85.90;100726.22;4980681;28;20042;-69
2021/04/22 03:04:12;;;;;;;24.77;6.18;;;;;;;-2.02;85.66;100731.94;4977320;28;20169;-68
2021/04/22 03:06:38;;;;;;;22.63;4.70;;;;;;;-2.24;84.79;100730.38;4980923;28;20424;-69
2021/04/22 03:09:04;;;;;;;22.08;5.30;;;;;;;-2.35;85.60;100728.66;4997430;28;20034;-68
2021/04/22 03:11:29;;;;;;;20.50;5.28;;;;;;;-2.44;85.76;100729.47;4974039;28;20069;-68
2021/04/22 03:13:55;;;;;;;30.58;6.50;;;;;;;-2.37;85.78;100731.44;4975087;28;20034;-68
2021/04/22 03:16:22;;;;;;;22.85;5.97;;;;;;;-2.36;85.44;100729.63;4972498;28;20092;-68
2021/04/22 03:18:48;;;;;;;24.38;5.63;;;;;;;-2.46;85.83;100732.25;4984070;28;20038;-68
2021/04/22 03:21:13;;;;;;;31.63;6.45;;;;;;;-2.33;86.59;100726.72;4976889;28;20039;-68
2021/04/22 03:23:39;;;;;;;20.27;5.57;;;;;;;-2.31;85.23;100726.59;4982902;28;20046;-68
2021/04/22 03:26:05;;;;;;;22.92;5.13;;;;;;;-2.42;84.74;100728.38;4972516;28;20031;-68
2021/04/22 03:28:31;;;;;;;17.52;4.65;;;;;;;-2.54;85.20;100727.63;4977861;28;20913;-68
2021/04/22 03:30:56;;;;;;;23.85;4.68;;;;;;;-2.55;85.60;100735.69;4992549;28;20096;-67
2021/04/22 03:33:22;;;;;;;20.02;5.47;;;;;;;-2.61;86.43;100738.84;4982194;28;20141;-68
2021/04/22 03:35:48;;;;;;;26.27;5.90;;;;;;;-2.67;86.55;100738.38;4973517;28;20049;-67
2021/04/22 03:38:13;;;;;;;11.95;4.40;;;;;;;-2.73;86.57;100741.53;4970963;28;20038;-69
2021/04/22 03:40:39;;;;;;;31.60;5.88;;;;;;;-2.71;86.73;100733.50;4971854;28;20069;-69
2021/04/22 03:43:05;;;;;;;27.65;6.28;;;;;;;-2.73;86.94;100730.16;4972049;28;20042;-68
2021/04/22 03:45:31;;;;;;;22.08;6.22;;;;;;;-2.74;87.12;100731.13;4980068;28;20384;-68
2021/04/22 03:47:56;;;;;;;22.08;5.13;;;;;;;-2.73;87.32;100740.72;4977925;28;20027;-68
2021/04/22 03:50:22;;;;;;;27.95;5.20;;;;;;;-2.74;87.12;100739.06;4978971;28;20110;-69
2021/04/22 03:52:50;;;;;;;28.27;5.57;;;;;;;-2.77;87.35;100728.75;4975724;28;20030;-68
2021/04/22 03:55:17;;;;;;;22.52;5.60;;;;;;;-2.75;87.27;100729.47;4979397;28;20026;-69
2021/04/22 03:57:43;;;;;;;20.77;5.55;;;;;;;-2.78;87.24;100735.81;4969256;28;20034;-68
2021/04/22 04:00:13;;;;;;;26.90;6.63;;;;;;;-2.68;87.55;100734.06;4970481;28;20057;-68
2021/04/22 04:02:39;;;;;;;24.38;4.82;;;;;;;-2.78;86.38;100738.47;4973590;28;20035;-68
2021/04/22 04:05:06;;;;;;;15.93;4.38;;;;;;;-2.83;86.83;100743.28;4982876;28;20516;-68
2021/04/22 04:07:32;;;;;;;26.30;6.78;;;;;;;-2.69;87.48;100734.22;4984792;28;20092;-67
2021/04/22 04:09:58;;;;;;;24.20;5.50;;;;;;;-2.76;86.58;100735.72;4969729;28;20559;-68
2021/04/22 04:12:27;;;;;;;23.13;5.60;;;;;;;-2.87;86.88;100740.09;4983780;28;20070;-69
2021/04/22 04:14:54;;;;;;;21.85;6.57;;;;;;;-2.91;86.79;100735.19;4971056;28;20113;-69
2021/04/22 04:17:19;;;;;;;22.80;5.18;;;;;;;-2.95;86.89;100737.28;4969766;28;20050;-68
2021/04/22 04:19:45;;;;;;;20.33;5.47;;;;;;;-3.00;87.05;100734.19;4982324;28;20088;-69
2021/04/22 04:22:10;;;;;;;28.65;6.88;;;;;;;-2.94;87.37;100734.50;4970111;28;20392;-70
2021/04/22 04:24:36;;;;;;;24.48;7.25;;;;;;;-2.92;87.44;100736.16;4981999;28;20038;-69
2021/04/22 04:27:05;;;;;;;22.55;5.80;;;;;;;-2.98;86.72;100730.44;4973073;28;20038;-69
2021/04/22 04:29:30;;;;;;;28.30;6.78;;;;;;;-3.01;87.18;100735.97;4973257;28;20061;-69
2021/04/22 04:31:56;;;;;;;25.50;6.10;;;;;;;-3.07;87.32;100730.41;4972802;28;20038;-68
2021/04/22 04:34:21;;;;;;;25.35;6.78;;;;;;;-3.07;87.78;100733.03;4980595;28;20039;-66
2021/04/22 04:36:47;;;;;;;33.97;7.38;;;;;;;-3.07;87.41;100728.59;4981147;28;20550;-69
2021/04/22 04:39:14;;;;;;;52.40;9.77;;;;;;;-2.89;88.17;100736.75;4969236;28;20027;-68
2021/04/22 04:41:41;;;;;;;21.90;6.60;;;;;;;-2.94;87.02;100737.13;4972320;28;20042;-68
2021/04/22 04:44:09;;;;;;;39.95;7.43;;;;;;;-3.02;87.25;100734.31;4978647;28;20038;-68
2021/04/22 04:46:35;;;;;;;33.10;7.05;;;;;;;-3.04;87.61;100743.31;4975646;28;20026;-68
2021/04/22 04:49:01;;;;;;;30.08;8.10;;;;;;;-2.84;87.81;100739.84;4977009;28;20058;-68
2021/04/22 04:51:27;;;;;;;32.88;7.22;;;;;;;-2.91;86.53;100743.97;4973106;28;20433;-68
2021/04/22 04:53:52;;;;;;;38.33;7.45;;;;;;;-3.02;86.98;100747.47;4983242;28;20546;-67
2021/04/22 04:56:19;;;;;;;37.65;7.65;;;;;;;-3.03;87.49;100743.16;4975565;28;20429;-68
2021/04/22 04:58:48;;;;;;;35.00;7.40;;;;;;;-3.01;87.54;100749.16;4985461;28;20500;-68
2021/04/22 05:01:14;;;;;;;40.70;8.68;;;;;;;-3.04;87.59;100749.41;4974120;28;20424;-68
2021/04/22 05:03:39;;;;;;;29.40;7.47;;;;;;;-3.05;87.55;100752.19;4978221;28;20042;-69
2021/04/22 05:06:06;;;;;;;48.28;8.88;;;;;;;-2.97;88.56;100750.56;4985043;28;20030;-72
2021/04/22 05:08:33;;;;;;;23.40;7.63;;;;;;;-2.91;87.56;100751.88;4978968;28;20118;-72
2021/04/22 05:11:00;;;;;;;32.78;7.68;;;;;;;-2.98;87.33;100759.44;4968502;28;20304;-71
2021/04/22 05:13:26;;;;;;;29.45;7.53;;;;;;;-3.01;87.73;100762.34;4979743;28;20437;-71
2021/04/22 05:15:52;;;;;;;29.60;6.50;;;;;;;-3.01;87.59;100761.50;4978918;28;20045;-72
2021/04/22 05:18:18;;;;;;;37.92;9.43;;;;;;;-2.77;87.94;100761.22;4990664;28;20018;-70
2021/04/22 05:20:43;;;;;;;30.80;7.68;;;;;;;-2.75;87.12;100758.47;4983094;28;20054;-71
2021/04/22 05:23:09;;;;;;;22.63;7.00;;;;;;;-2.80;86.97;100758.84;4973553;28;20023;-71
2021/04/22 05:25:34;;;;;;;29.00;7.82;;;;;;;-2.83;87.15;100759.09;4976436;28;20848;-71
2021/04/22 05:28:01;;;;;;;25.75;6.82;;;;;;;-2.80;87.02;100761.47;5000583;28;20041;-72
2021/04/22 05:30:27;;;;;;;26.42;7.93;;;;;;;-2.76;87.13;100770.00;4988877;28;20026;-71
2021/04/22 05:32:53;;;;;;;23.77;7.25;;;;;;;-2.71;87.03;100768.63;4982803;28;20038;-71
2021/04/22 05:35:19;;;;;;;30.58;8.38;;;;;;;-2.71;87.15;100773.06;4987226;28;20042;-72
2021/04/22 05:37:44;;;;;;;26.90;7.45;;;;;;;-2.70;87.29;100759.75;4992163;28;20472;-68
2021/04/22 05:40:11;;;;;;;28.15;8.48;;;;;;;-2.59;87.19;100760.66;4976476;28;20034;-68
2021/04/22 05:42:36;;;;;;;27.45;8.05;;;;;;;-2.45;87.15;100765.56;4977396;28;20045;-67
2021/04/22 05:45:04;;;;;;;18.70;7.60;;;;;;;-2.27;86.91;100768.41;4974660;28;20054;-69
2021/04/22 05:47:30;;;;;;;20.60;7.65;;;;;;;-2.03;86.89;100766.41;4984648;28;20094;-69
2021/04/22 05:49:55;;;;;;;26.88;7.13;;;;;;;-1.71;86.19;100770.66;4977064;28;20046;-69
2021/04/22 05:52:21;;;;;;;20.52;6.93;;;;;;;-1.38;85.53;100780.00;4970030;28;20113;-69
2021/04/22 05:54:46;;;;;;;36.13;8.57;;;;;;;-1.10;84.10;100781.94;4978192;28;20035;-67
2021/04/22 05:57:13;;;;;;;27.85;8.18;;;;;;;-0.94;83.11;100779.56;4974798;28;20039;-69
2021/04/22 05:59:39;;;;;;;26.95;8.05;;;;;;;-0.85;83.11;100783.16;4974796;28;20042;-69
2021/04/22 06:02:05;;;;;;;36.53;7.47;;;;;;;-0.77;82.82;100785.13;4975085;28;20031;-68
2021/04/22 06:04:31;;;;;;;24.58;6.38;;;;;;;-0.76;83.24;100779.66;4979844;28;20054;-68
2021/04/22 06:06:57;;;;;;;23.63;7.03;;;;;;;-0.79;82.50;100784.44;4980069;28;20062;-69
2021/04/22 06:09:22;;;;;;;21.83;7.40;;;;;;;-0.85;83.46;100788.47;4973676;28;20058;-70
2021/04/22 06:11:48;;;;;;;30.98;7.32;;;;;;;-0.85;83.11;100792.94;4977269;28;20034;-68
2021/04/22 06:14:14;;;;;;;33.63;6.38;;;;;;;-0.83;84.03;100797.09;4979470;28;20044;-69
2021/04/22 06:16:40;;;;;;;36.90;6.10;;;;;;;-0.76;84.83;100800.84;4984108;28;20117;-69
2021/04/22 06:19:06;;;;;;;30.73;5.38;;;;;;;-0.69;84.91;100800.25;4983590;28;20027;-69
2021/04/22 06:21:33;;;;;;;28.60;5.45;;;;;;;-0.67;85.18;100801.81;4981801;28;20060;-69
2021/04/22 06:24:00;;;;;;;19.30;4.60;;;;;;;-0.54;85.65;100795.38;4986837;28;20030;-64
2021/04/22 06:26:26;;;;;;;36.80;6.57;;;;;;;-0.40;85.68;100791.41;4981860;28;20077;-64
2021/04/22 06:28:51;;;;;;;28.25;6.05;;;;;;;-0.30;85.17;100803.66;4977813;28;20046;-64
2021/04/22 06:31:17;;;;;;;37.95;5.85;;;;;;;-0.17;85.65;100802.47;4976956;28;20043;-63
2021/04/22 06:33:43;;;;;;;44.30;8.02;;;;;;;0.05;84.33;100801.28;4974222;28;20046;-64
2021/04/22 06:36:09;;;;;;;40.40;6.35;;;;;;;0.19;83.70;100807.88;4972735;28;20043;-64
2021/04/22 06:38:34;;;;;;;45.15;5.32;;;;;;;0.21;83.98;100808.56;4979852;28;20034;-64
2021/04/22 06:41:00;;;;;;;37.13;5.78;;;;;;;0.31;83.68;100812.97;4978499;28;20038;-64
2021/04/22 06:43:26;;;;;;;40.67;5.45;;;;;;;0.53;83.48;100814.38;4972889;28;20034;-65
2021/04/22 06:45:51;;;;;;;30.40;6.97;;;;;;;0.61;83.56;100806.50;4983966;28;20037;-64
2021/04/22 06:48:17;;;;;;;27.23;5.78;;;;;;;0.70;83.06;100815.34;4992887;28;20035;-64
2021/04/22 06:50:44;;;;;;;27.08;5.38;;;;;;;0.77;83.49;100821.72;4975819;28;20030;-64
2021/04/22 06:53:10;;;;;;;39.70;7.50;;;;;;;0.95;81.56;100824.38;4986570;28;20034;-64
2021/04/22 06:55:37;;;;;;;44.15;6.95;;;;;;;1.07;81.39;100827.66;4976488;28;20027;-63
2021/04/22 06:58:05;;;;;;;36.58;5.95;;;;;;;1.19;81.32;100822.09;4983885;28;20034;-64
2021/04/22 07:00:37;;;;;;;28.13;6.65;;;;;;;1.46;80.02;100827.25;4977750;28;20081;-64
2021/04/22 07:03:04;;;;;;;26.92;4.97;;;;;;;1.48;80.11;100823.63;4979952;28;20031;-63
2021/04/22 07:05:29;;;;;;;40.00;5.35;;;;;;;1.67;79.01;100828.72;4990283;28;20113;-63
2021/04/22 07:07:56;;;;;;;33.75;5.68;;;;;;;1.89;78.64;100823.84;4973444;28;20030;-64
2021/04/22 07:10:21;;;;;;;31.73;6.10;;;;;;;2.05;77.46;100826.59;4981570;28;20396;-64
2021/04/22 07:12:47;;;;;;;33.05;5.57;;;;;;;1.95;78.18;100830.38;4968556;28;20058;-64
2021/04/22 07:15:16;;;;;;;39.65;5.35;;;;;;;2.15;77.04;100836.25;4976956;28;20038;-64
2021/04/22 07:17:42;;;;;;;39.03;5.65;;;;;;;2.28;76.74;100833.97;4970656;28;20030;-64
2021/04/22 07:20:13;;;;;;;38.80;5.13;;;;;;;2.19;77.27;100838.44;4972848;28;20042;-65
2021/04/22 07:22:39;;;;;;;30.48;4.25;;;;;;;2.40;76.37;100829.22;4971465;28;20090;-64
2021/04/22 07:25:08;;;;;;;42.40;7.07;;;;;;;2.42;75.86;100827.22;4986017;28;20133;-65
2021/04/22 07:27:33;;;;;;;34.45;4.85;;;;;;;2.33;76.57;100829.00;4979005;28;20039;-64
2021/04/22 07:29:59;;;;;;;41.47;5.20;;;;;;;2.62;75.47;100824.28;4979655;28;20543;-64
2021/04/22 07:32:25;;;;;;;40.15;6.18;;;;;;;2.67;75.42;100826.47;4981947;28;20039;-64
2021/04/22 07:34:51;;;;;;;24.73;4.65;;;;;;;2.74;74.85;100824.81;4976644;28;20428;-64
2021/04/22 07:37:17;;;;;;;28.52;4.80;;;;;;;2.74;75.24;100830.13;4976239;28;20037;-64
2021/04/22 07:39:45;;;;;;;37.08;5.10;;;;;;;2.87;74.60;100840.28;4972743;28;20041;-64
2021/04/22 07:42:11;;;;;;;37.65;3.95;;;;;;;2.79;74.08;100825.16;4968384;28;20023;-63
2021/04/22 07:44:37;;;;;;;34.63;4.32;;;;;;;2.78;74.30;100826.94;4971419;28;20062;-63
2021/04/22 07:47:04;;;;;;;34.85;4.15;;;;;;;2.90;74.06;100823.97;4990217;28;20451;-63
2021/04/22 07:49:30;;;;;;;37.25;4.30;;;;;;;2.93;73.67;100829.81;4988454;28;20034;-63
2021/04/22 07:51:56;;;;;;;31.77;4.18;;;;;;;3.04;74.37;100818.00;4986914;28;20076;-64
2021/04/22 07:54:21;;;;;;;30.55;4.75;;;;;;;3.30;73.14;100826.81;4978898;28;20133;-64
2021/04/22 07:56:47;;;;;;;31.30;3.80;;;;;;;3.33;72.97;100824.63;4985981;28;20085;-64
2021/04/22 07:59:13;;;;;;;34.13;4.35;;;;;;;3.39;71.54;100827.63;4984665;28;20129;-67
2021/04/22 08:01:38;;;;;;;29.13;4.00;;;;;;;3.53;72.22;100834.91;4980851;28;20038;-67
2021/04/22 08:04:05;;;;;;;38.33;5.13;;;;;;;3.85;70.60;100835.88;4974980;28;20034;-67
2021/04/22 08:06:32;;;;;;;47.90;8.05;;;;;;;3.95;69.00;100839.16;4627689;28;10000132;-67
2021/04/22 08:08:58;;;;;;;43.97;7.75;;;;;;;4.00;67.73;100832.50;4981543;28;20042;-67
2021/04/22 08:11:24;;;;;;;31.92;4.70;;;;;;;3.90;68.91;100843.34;4981260;28;20070;-67
2021/04/22 08:13:49;;;;;;;37.45;5.55;;;;;;;3.87;69.58;100841.88;4974788;28;20061;-68
2021/04/22 08:16:16;;;;;;;37.22;5.13;;;;;;;3.91;69.75;100839.66;4999115;28;20641;-67
2021/04/22 08:18:42;;;;;;;37.85;5.18;;;;;;;4.16;70.06;100835.09;4980221;28;20054;-67
2021/04/22 08:21:09;;;;;;;38.65;4.82;;;;;;;4.09;69.53;100837.59;4965178;28;20042;-69
2021/04/22 08:23:35;;;;;;;29.00;4.07;;;;;;;4.19;68.23;100845.41;4970629;28;20069;-69
2021/04/22 08:26:08;;;;;;;38.53;4.22;;;;;;;4.53;66.76;100838.91;4975861;28;20034;-69
2021/04/22 08:28:35;;;;;;;28.93;4.47;;;;;;;4.65;65.74;100849.19;4980374;28;20041;-68
2021/04/22 08:31:04;;;;;;;27.33;4.05;;;;;;;4.52;63.94;100841.75;4987876;28;20400;-66
2021/04/22 08:33:32;;;;;;;27.15;5.10;;;;;;;4.56;64.37;100848.41;4982036;28;20109;-67
2021/04/22 08:35:58;;;;;;;36.13;4.45;;;;;;;4.65;63.44;100835.84;4968298;28;20042;-66
2021/04/22 08:38:24;;;;;;;33.65;4.18;;;;;;;4.55;62.98;100844.09;4981030;28;20038;-66
2021/04/22 08:40:52;;;;;;;31.77;4.78;;;;;;;4.75;63.88;100847.13;4969845;28;20093;-66
2021/04/22 08:43:18;;;;;;;23.13;3.40;;;;;;;5.04;59.94;100850.09;4981423;28;20041;-66
2021/04/22 08:45:45;;;;;;;22.38;3.40;;;;;;;4.93;59.41;100846.00;4971097;28;20041;-66
2021/04/22 08:48:12;;;;;;;23.60;3.90;;;;;;;5.04;62.88;100853.59;4972129;28;20114;-66
2021/04/22 08:50:40;;;;;;;26.90;3.80;;;;;;;5.00;61.43;100846.94;4972281;28;20046;-66
2021/04/22 08:53:12;;;;;;;26.30;3.60;;;;;;;5.38;59.79;100840.78;4975003;28;20042;-67
2021/04/22 08:55:38;;;;;;;22.08;3.33;;;;;;;5.54;58.27;100840.66;4984080;28;20031;-68
2021/04/22 08:58:05;;;;;;;22.17;3.78;;;;;;;5.57;57.91;100848.28;4989340;28;20109;-68
2021/04/22 09:00:38;;;;;;;25.17;3.15;;;;;;;5.73;57.90;100849.13;4980542;28;20057;-66
2021/04/22 09:03:04;;;;;;;23.02;3.42;;;;;;;5.68;56.15;100851.53;4973887;28;20050;-67
2021/04/22 09:05:30;;;;;;;23.92;3.28;;;;;;;5.60;55.83;100844.44;4976745;28;20035;-67
2021/04/22 09:07:55;;;;;;;36.60;4.35;;;;;;;5.82;56.75;100839.19;4982531;28;20492;-67
2021/04/22 09:10:27;;;;;;;26.08;3.60;;;;;;;5.75;57.23;100847.13;4988129;28;20491;-67
2021/04/22 09:13:15;;;;;;;22.17;2.60;;;;;;;5.96;53.27;100845.56;4977721;28;20439;-67
2021/04/22 09:15:44;;;;;;;21.88;3.63;;;;;;;6.15;54.67;100841.53;4970641;28;20047;-67
2021/04/22 09:18:13;;;;;;;25.80;4.07;;;;;;;6.43;49.25;100839.00;4983836;28;20069;-67
2021/04/22 09:20:43;;;;;;;25.70;3.58;;;;;;;6.37;50.95;100834.41;4979697;28;20049;-67
2021/04/22 09:23:26;;;;;;;20.65;3.55;;;;;;;6.58;49.03;100830.91;4985504;28;20492;-67
2021/04/22 09:26:03;;;;;;;18.92;3.70;;;;;;;6.63;47.44;100821.47;4977602;28;20045;-67
2021/04/22 09:28:37;;;;;;;19.95;2.97;;;;;;;6.68;47.04;100822.59;4987245;28;20038;-69
2021/04/22 09:31:05;;;;;;;17.90;2.90;;;;;;;6.82;47.48;100833.44;4976618;28;20042;-67
2021/04/22 09:33:32;;;;;;;25.88;3.67;;;;;;;6.57;47.63;100828.44;4966373;28;20074;-68
2021/04/22 09:36:15;;;;;;;19.33;3.58;;;;;;;6.69;49.89;100834.97;4969378;28;20094;-68
2021/04/22 09:38:54;;;;;;;22.42;3.85;;;;;;;6.67;51.47;100831.63;4980488;28;20027;-68
2021/04/22 09:41:19;;;;;;;32.78;4.70;;;;;;;6.84;49.99;100826.03;4965675;28;20078;-67
2021/04/22 09:43:45;;;;;;;31.08;5.95;;;;;;;6.96;46.91;100821.81;4987085;28;20065;-69
2021/04/22 09:46:21;;;;;;;21.88;4.97;;;;;;;7.17;47.72;100831.72;4988274;28;20041;-68
2021/04/22 09:48:48;;;;;;;29.90;5.90;;;;;;;7.08;48.95;100829.34;4986258;28;20034;-69
2021/04/22 09:51:31;;;;;;;29.38;5.60;;;;;;;7.15;49.61;100822.19;4979437;28;20413;-68
2021/04/22 09:54:10;;;;;;;32.30;4.53;;;;;;;7.42;46.25;100831.28;4969086;28;20042;-69
2021/04/22 09:56:44;;;;;;;20.48;4.45;;;;;;;7.56;45.26;100824.16;4977005;28;20039;-69
2021/04/22 09:59:10;;;;;;;;;;;;;;;7.72;44.16;100819.50;4972824;28;20030;-69
2021/04/22 10:01:37;;;;;;;20.83;3.80;;;;;;;7.78;42.42;100818.72;4971235;28;19945;-69
2021/04/22 10:04:03;;;;;;;20.70;4.40;;;;;;;7.84;41.81;100827.84;4977700;28;20122;-69
2021/04/22 10:06:42;;;;;;;16.85;3.92;;;;;;;7.96;41.59;100820.91;4986532;28;20022;-69
2021/04/22 10:09:08;;;;;;;19.77;3.92;;;;;;;8.06;39.82;100823.22;4975352;28;20173;-69
2021/04/22 10:12:01;;;;;;;13.75;3.85;;;;;;;7.99;40.57;100817.81;4976577;28;20034;-69
2021/04/22 10:14:35;;;;;;;16.13;3.38;;;;;;;8.08;38.26;100817.66;4980201;28;20081;-68
2021/04/22 10:17:18;;;;;;;12.93;3.17;;;;;;;8.15;37.81;100815.81;4980364;28;20109;-68
2021/04/22 10:19:56;;;;;;;20.42;4.22;;;;;;;8.20;37.24;100816.88;4982629;28;20026;-69
2021/04/22 10:22:45;;;;;;;19.27;3.67;;;;;;;8.49;35.28;100816.78;4976178;28;20169;-69
2021/04/22 10:25:13;;;;;;;13.63;3.15;;;;;;;8.63;36.93;100821.16;4976448;28;20038;-68
2021/04/22 10:27:40;;;;;;;13.40;3.28;;;;;;;8.52;35.75;100813.69;4982499;28;20082;-69
2021/04/22 10:30:09;;;;;;;14.38;2.60;;;;;;;8.47;37.04;100805.41;4984980;28;20043;-69
2021/04/22 10:32:36;;;;;;;20.65;3.42;;;;;;;8.55;35.98;100813.28;4984186;28;20039;-69
2021/04/22 10:35:03;;;;;;;17.33;3.42;;;;;;;8.63;36.06;100812.28;4983920;28;20055;-69
2021/04/22 10:37:31;;;;;;;13.80;3.30;;;;;;;8.49;36.69;100808.72;4974530;28;20026;-69
2021/04/22 10:39:57;;;;;;;13.02;2.88;;;;;;;8.78;34.29;100795.97;4982772;28;20026;-69
2021/04/22 10:42:24;;;;;;;20.73;3.70;;;;;;;8.70;36.46;100802.41;4974601;28;20476;-69
2021/04/22 10:44:50;;;;;;;13.35;2.90;;;;;;;8.82;35.91;100799.91;4978963;28;20057;-69
2021/04/22 10:47:19;;;;;;;14.18;2.63;;;;;;;8.73;34.44;100804.66;4984209;28;20034;-69
2021/04/22 10:49:46;;;;;;;12.90;3.58;;;;;;;8.83;36.03;100801.56;4977835;28;20027;-66
2021/04/22 10:52:13;;;;;;;17.33;3.75;;;;;;;8.77;34.74;100805.06;4973974;28;20050;-67
2021/04/22 10:54:41;;;;;;;19.38;3.05;;;;;;;8.87;34.82;100807.38;4634115;28;10000535;-66
2021/04/22 10:57:10;;;;;;;7.10;2.53;;;;;;;9.07;33.45;100810.09;4973203;28;20186;-70
2021/04/22 10:59:36;;;;;;;11.88;2.85;;;;;;;9.12;32.49;100807.59;4986265;28;20066;-70
2021/04/22 11:02:19;;;;;;;10.23;2.47;;;;;;;9.12;30.68;100804.09;4980680;28;20035;-70
2021/04/22 11:04:47;;;;;;;12.85;2.88;;;;;;;9.20;32.38;100810.09;4990343;28;20046;-66
2021/04/22 11:07:31;;;;;;;21.08;2.85;;;;;;;9.30;32.35;100808.84;4986728;28;20370;-66
2021/04/22 11:09:59;;;;;;;12.57;3.45;;;;;;;9.46;31.49;100799.50;4977696;28;20096;-65
2021/04/22 11:12:28;;;;;;;12.98;2.70;;;;;;;9.43;32.62;100799.94;4991968;28;20108;-65
2021/04/22 11:14:55;;;;;;;15.38;2.67;;;;;;;9.58;31.75;100795.13;4989327;28;20035;-64
2021/04/22 11:17:41;;;;;;;12.93;2.65;;;;;;;9.25;32.06;100798.69;4987083;28;20042;-65
2021/04/22 11:20:16;;;;;;;24.08;3.42;;;;;;;9.62;33.20;100790.19;4991224;28;20121;-65
2021/04/22 11:22:45;;;;;;;18.88;3.20;;;;;;;9.94;33.07;100801.91;4981439;28;20096;-65